Godman Army Air Field Fort Knox US
ICAO: KFTK
IATA: FTK
Category: Medium
Scheduled Services: No

Elevation: 756 ft
TransAlt. 18000 ft.

Airport Communications:
LOUISVILLE APP/DEP:123.675
ATIS:109.6
CTAF:126.8
GND:121.9
AIR TO AIR:23.75
BASE OPS:126.2
TWR:126.8

KFTK Zoom In..

If you have problems with the map follow the link
https://www.worldairports.se/pages/airport.php?
ICAO=KFTK

Runways:

(A) RW 05 length 2366 ft width 90 ft
---- / hdg 49

(B) RW 15 length 4853 ft width 75 ft
---- / hdg 151

(C) RW 18 length 5185 ft width 148 ft
---- / hdg 179

(D) RW 23 length 2366 ft width 90 ft
---- / hdg 229

(E) RW 33 length 4853 ft width 75 ft
---- / hdg 331

(F) RW 36 length 5185 ft width 148 ft
---- / hdg 359

Location; KFTK
Day. 19 / Time. 21.56 Zulu
* Altimeter: 29.85
* Temperature: 24° c. 75.2°f.
* Wind from: 190° Speed 13 kn with Gusts up to 17 kn.
Dewpoint: 20° c.
Visibility: 10 Statute Miles.
Clouds: Few 2500 ft.
Clouds: Broken 12000 ft.

KFTK 192156Z AUTO 19013G17KT 10SM FEW025 BKN120 24/20 A2985 RMK AO2 SLP105 T02390200


Wind From 190°
Speed 13 kn.

 
 
jpsmedia.com for Web Design worldairports.se 2019   terms of use